createdAt,value
2016-03-01T00:25:41.705Z,0
2016-03-01T00:26:28.192Z,0
2016-03-01T00:27:46.757Z,0
2016-03-01T00:28:21.728Z,0
2016-03-01T00:43:46.709Z,0
2016-03-01T00:43:59.334Z,0
2016-03-01T00:44:59.400Z,0
2016-03-01T00:45:59.512Z,0
2016-03-01T00:47:12.095Z,0
2016-03-01T02:01:50.595Z,0
2016-03-01T02:02:16.363Z,0
2016-03-01T02:04:28.774Z,0
2016-03-01T02:05:25.715Z,0
2016-03-01T02:06:30.343Z,0
2016-03-01T02:07:32.502Z,0
2016-03-01T02:09:29.195Z,0
2016-03-01T02:10:55.056Z,0
2016-03-01T02:11:30.418Z,0
2016-03-01T02:13:01.640Z,0
2016-03-01T02:13:48.549Z,0
2016-03-01T02:15:04.739Z,0
2016-03-01T02:15:58.461Z,0
2016-03-01T02:18:20.844Z,0
2016-03-01T02:19:20.893Z,0
2016-03-01T02:19:55.189Z,0
2016-03-01T02:21:52.424Z,0
2016-03-01T02:22:06.830Z,0
2016-03-01T02:24:21.696Z,0
2016-03-01T02:25:40.807Z,0
2016-03-01T02:26:24.702Z,0
2016-03-01T02:27:24.782Z,0
2016-03-01T02:28:25.066Z,0
2016-03-01T02:29:25.069Z,0
2016-03-01T02:30:37.603Z,0
2016-03-01T02:31:37.480Z,0
2016-03-01T02:32:24.780Z,0
2016-03-01T02:33:44.016Z,0
2016-03-01T02:34:31.113Z,0
2016-03-01T02:36:34.774Z,0
2016-03-01T02:37:34.746Z,0
2016-03-01T02:38:34.748Z,0
2016-03-01T02:39:34.940Z,0
2016-03-01T02:40:41.020Z,0
2016-03-01T02:41:34.773Z,0
2016-03-01T02:42:47.479Z,0
2016-03-01T02:43:35.043Z,0
2016-03-01T02:44:34.781Z,0
2016-03-01T02:45:42.673Z,0
2016-03-01T02:46:53.817Z,0
2016-03-01T02:47:50.429Z,0
2016-03-01T02:49:53.934Z,0
2016-03-01T02:51:06.609Z,0
2016-03-01T02:52:08.034Z,0
2016-03-01T02:53:06.692Z,0
2016-03-01T02:54:19.370Z,0
2016-03-01T02:55:13.042Z,0
2016-03-01T02:56:25.907Z,0
2016-03-01T02:57:19.378Z,0
2016-03-01T02:58:32.366Z,0
2016-03-01T02:59:16.274Z,0
2016-03-01T03:00:35.683Z,0
2016-03-01T03:01:28.982Z,0
2016-03-01T03:02:16.313Z,0
2016-03-01T03:03:42.035Z,0
2016-03-01T03:04:16.288Z,0
2016-03-01T03:06:18.949Z,0
2016-03-01T03:06:31.496Z,0
2016-03-01T03:07:31.796Z,0
2016-03-01T03:08:37.815Z,0
2016-03-01T03:09:37.801Z,0
2016-03-01T03:10:44.398Z,0
2016-03-01T03:11:31.540Z,0
2016-03-01T03:12:50.809Z,0
2016-03-01T03:14:13.234Z,0
2016-03-01T03:16:16.351Z,0
2016-03-01T03:16:57.945Z,0
2016-03-01T03:18:28.481Z,0
2016-03-01T03:19:10.122Z,0
2016-03-01T03:19:57.281Z,0
2016-03-01T03:22:06.770Z,0
2016-03-01T03:23:06.977Z,0
2016-03-01T03:24:07.105Z,0
2016-03-01T03:25:13.341Z,0
2016-03-01T03:26:08.314Z,0
2016-03-01T03:27:06.769Z,0
2016-03-01T03:28:21.102Z,0
2016-03-01T03:29:13.227Z,0
2016-03-01T03:31:22.032Z,0
2016-03-01T03:33:19.069Z,0
2016-03-01T03:33:50.788Z,0
2016-03-01T03:34:50.696Z,0
2016-03-01T03:35:37.777Z,0
2016-03-01T03:37:41.188Z,0
2016-03-01T03:39:00.396Z,0
2016-03-01T03:40:07.132Z,0
2016-03-01T03:40:41.182Z,0
2016-03-01T03:41:41.356Z,0
2016-03-01T03:42:41.874Z,0
2016-03-01T03:43:53.940Z,0
2016-03-01T03:44:42.646Z,0
2016-03-01T03:46:06.898Z,0
2016-03-01T03:46:50.838Z,0
2016-03-01T03:48:09.981Z,0
2016-03-01T03:49:03.797Z,0
2016-03-01T03:49:50.892Z,0
2016-03-01T03:50:51.037Z,0
2016-03-01T03:51:57.101Z,0
2016-03-01T03:53:10.058Z,0
2016-03-01T03:54:03.560Z,0
2016-03-01T03:55:22.158Z,0
2016-03-01T03:56:10.080Z,0
2016-03-01T03:56:50.865Z,0
2016-03-01T03:58:16.808Z,0
2016-03-01T03:58:51.152Z,0
2016-03-01T03:59:50.935Z,0
2016-03-01T04:00:51.063Z,0
2016-03-01T04:01:50.972Z,0
2016-03-01T04:02:51.319Z,0
2016-03-01T04:04:03.744Z,0
2016-03-01T04:04:51.715Z,0
2016-03-01T04:06:10.374Z,0
2016-03-01T04:06:51.438Z,0
2016-03-01T04:09:01.553Z,0
2016-03-01T04:10:58.710Z,0
2016-03-01T04:11:30.713Z,0
2016-03-01T04:12:30.638Z,0
2016-03-01T04:13:12.013Z,0
2016-03-01T04:15:15.487Z,0
2016-03-01T04:15:28.396Z,0
2016-03-01T04:16:28.804Z,0
2016-03-01T04:17:28.338Z,0
2016-03-01T04:18:41.123Z,0
2016-03-01T04:19:28.312Z,0
2016-03-01T04:20:48.097Z,0
2016-03-01T04:21:47.740Z,0
2016-03-01T04:22:59.759Z,0
2016-03-01T04:23:47.620Z,0
2016-03-01T04:24:28.357Z,0
2016-03-01T04:25:28.642Z,0
2016-03-01T04:26:41.238Z,0
2016-03-01T04:27:28.709Z,0
2016-03-01T04:28:28.415Z,0
2016-03-01T04:29:28.808Z,0
2016-03-01T04:31:25.455Z,0
2016-03-01T04:33:36.336Z,0
2016-03-01T04:35:52.012Z,0
2016-03-01T04:36:36.421Z,0
2016-03-01T04:37:05.171Z,0
2016-03-01T04:38:04.892Z,0
2016-03-01T04:39:18.052Z,0
2016-03-01T04:40:17.679Z,0
2016-03-01T04:41:24.528Z,0
2016-03-01T04:43:01.905Z,0
2016-03-01T04:44:54.021Z,0
2016-03-01T04:45:53.477Z,0
2016-03-01T04:47:07.495Z,0
2016-03-01T04:49:10.203Z,0
2016-03-01T04:50:01.612Z,0
2016-03-01T04:50:23.192Z,0
2016-03-01T04:52:37.339Z,0
2016-03-01T04:54:37.219Z,0
2016-03-01T04:54:50.703Z,0
2016-03-01T04:55:50.737Z,0
2016-03-01T04:56:51.225Z,0
2016-03-01T04:57:50.509Z,0
2016-03-01T04:59:09.590Z,0
2016-03-01T05:01:55.972Z,0
2016-03-01T05:02:37.881Z,0
2016-03-01T05:03:51.727Z,0
2016-03-01T05:05:27.296Z,0
2016-03-01T05:06:07.092Z,0
2016-03-01T05:06:40.174Z,0
2016-03-01T05:08:07.473Z,0
2016-03-01T05:08:40.475Z,0
2016-03-01T05:10:43.027Z,0
2016-03-01T05:11:22.374Z,0
2016-03-01T05:11:55.874Z,0
2016-03-01T05:13:58.489Z,0
2016-03-01T05:14:30.679Z,0
2016-03-01T05:15:11.413Z,0
2016-03-01T05:16:32.232Z,0
2016-03-01T05:17:11.701Z,0
2016-03-01T05:19:13.970Z,0
2016-03-01T05:19:52.931Z,0
2016-03-01T05:20:27.563Z,0
2016-03-01T05:22:29.468Z,0
2016-03-01T05:23:08.218Z,0
2016-03-01T05:23:42.664Z,0
2016-03-01T05:25:08.083Z,0
2016-03-01T05:25:50.253Z,0
2016-03-01T05:27:53.454Z,0
2016-03-01T05:29:11.843Z,0
2016-03-01T05:29:54.376Z,0
2016-03-01T05:32:07.956Z,0
2016-03-01T05:33:20.770Z,0
2016-03-01T05:35:10.632Z,0
2016-03-01T05:35:54.635Z,0
2016-03-01T05:36:23.325Z,0
2016-03-01T05:37:23.374Z,4
2016-03-01T05:38:36.110Z,4
2016-03-01T05:39:36.143Z,4
2016-03-01T05:40:49.163Z,4
2016-03-01T05:41:36.102Z,4
2016-03-01T05:42:55.448Z,4
2016-03-01T05:44:05.028Z,4
2016-03-01T05:45:36.316Z,8
2016-03-01T05:50:42.219Z,20
2016-03-01T05:51:42.081Z,20
2016-03-01T05:53:44.696Z,32
2016-03-01T05:54:22.996Z,32
2016-03-01T05:54:57.293Z,40
2016-03-01T05:56:28.641Z,48
2016-03-01T05:57:03.610Z,56
2016-03-01T05:57:58.753Z,64
2016-03-01T05:59:10.163Z,84
2016-03-01T06:00:00.384Z,92
2016-03-01T06:01:16.574Z,116
2016-03-01T06:01:58.171Z,132
2016-03-01T06:03:23.192Z,160
2016-03-01T06:03:58.817Z,176
2016-03-01T06:05:59.978Z,232
2016-03-01T06:06:44.168Z,256
2016-03-01T06:07:43.875Z,284
2016-03-01T06:08:44.298Z,316
2016-03-01T06:09:56.645Z,360
2016-03-01T06:10:45.319Z,392
2016-03-01T06:12:03.354Z,436
2016-03-01T06:12:44.153Z,464
2016-03-01T06:16:28.852Z,620
2016-03-01T06:17:03.274Z,648
2016-03-01T06:18:34.482Z,716
2016-03-01T06:19:03.247Z,740
2016-03-01T06:20:03.157Z,792
2016-03-01T06:21:03.222Z,848
2016-03-01T06:22:03.474Z,912
2016-03-01T06:23:15.946Z,992
2016-03-01T06:24:03.229Z,1052
2016-03-01T06:25:03.233Z,1124
2016-03-01T06:26:16.204Z,1220
2016-03-01T06:27:03.472Z,1288
2016-03-01T06:28:03.272Z,1376
2016-03-01T06:29:03.259Z,1464
2016-03-01T06:30:03.449Z,1560
2016-03-01T06:31:03.140Z,1652
2016-03-01T06:32:03.485Z,1756
2016-03-01T06:33:09.567Z,1868
2016-03-01T06:34:03.429Z,1960
2016-03-01T06:35:03.353Z,2060
2016-03-01T06:36:03.793Z,2164
2016-03-01T06:37:03.327Z,2264
2016-03-01T06:38:03.362Z,2364
2016-03-01T06:39:03.348Z,2472
2016-03-01T06:40:03.351Z,2580
2016-03-01T06:41:03.353Z,2692
2016-03-01T06:42:03.372Z,2804
2016-03-01T06:43:03.437Z,2916
2016-03-01T06:44:03.597Z,3032
2016-03-01T06:45:03.692Z,3148
2016-03-01T06:46:03.414Z,3256
2016-03-01T06:47:03.433Z,3372
2016-03-01T06:48:03.482Z,3492
2016-03-01T06:49:03.625Z,3628
2016-03-01T06:50:03.440Z,3784
2016-03-01T06:51:03.458Z,3964
2016-03-01T06:52:03.477Z,4156
2016-03-01T06:53:03.495Z,4396
2016-03-01T06:54:03.482Z,4668
2016-03-01T06:55:03.891Z,4996
2016-03-01T06:56:16.222Z,5172
2016-03-01T06:57:04.882Z,5208
2016-03-01T06:58:03.509Z,5252
2016-03-01T06:59:03.512Z,5312
2016-03-01T07:00:03.515Z,5420
2016-03-01T07:01:16.267Z,5380
2016-03-01T07:02:03.816Z,5388
2016-03-01T07:03:03.554Z,5576
2016-03-01T07:04:03.557Z,5508
2016-03-01T07:05:03.528Z,5436
2016-03-01T07:06:03.671Z,5276
2016-03-01T07:07:03.642Z,5248
2016-03-01T07:08:03.582Z,5080
2016-03-01T07:09:03.601Z,5088
2016-03-01T07:10:03.604Z,5768
2016-03-01T07:11:03.653Z,6032
2016-03-01T07:12:03.718Z,6228
2016-03-01T07:13:03.502Z,6540
2016-03-01T07:14:03.865Z,6964
2016-03-01T07:15:03.664Z,7064
2016-03-01T07:16:03.667Z,7212
2016-03-01T07:17:03.435Z,7164
2016-03-01T07:18:03.734Z,7236
2016-03-01T07:19:03.737Z,7188
2016-03-01T07:20:04.349Z,7892
2016-03-01T07:21:04.336Z,7408
2016-03-01T07:22:03.792Z,7088
2016-03-01T07:23:16.608Z,7804
2016-03-01T07:24:03.782Z,6780
2016-03-01T07:25:03.910Z,6648
2016-03-01T07:26:03.818Z,7640
2016-03-01T07:27:16.556Z,7068
2016-03-01T07:28:03.918Z,7188
2016-03-01T07:29:16.577Z,7032
2016-03-01T07:30:16.563Z,7528
2016-03-01T07:31:04.535Z,7688
2016-03-01T07:32:03.881Z,7240
2016-03-01T07:33:03.884Z,7116
2016-03-01T07:34:03.902Z,6940
2016-03-01T07:35:03.921Z,6708
2016-03-01T07:36:04.142Z,6652
2016-03-01T07:37:03.973Z,6608
2016-03-01T07:38:04.054Z,6708
2016-03-01T07:39:03.978Z,6728
2016-03-01T07:40:04.043Z,6828
2016-03-01T07:41:03.968Z,6908
2016-03-01T07:42:03.987Z,7008
2016-03-01T07:43:04.021Z,7108
2016-03-01T07:44:04.023Z,7108
2016-03-01T07:45:03.853Z,7144
2016-03-01T07:46:04.059Z,7120
2016-03-01T07:47:04.906Z,7060
2016-03-01T07:48:04.050Z,7040
2016-03-01T07:49:04.084Z,7044
2016-03-01T07:50:04.164Z,7040
2016-03-01T07:51:16.932Z,7112
2016-03-01T07:52:04.123Z,7196
2016-03-01T07:53:04.188Z,7308
2016-03-01T07:54:10.503Z,7444
2016-03-01T07:55:04.208Z,7532
2016-03-01T07:56:04.149Z,7644
2016-03-01T07:57:04.214Z,7728
2016-03-01T07:58:04.232Z,7788
2016-03-01T07:59:04.439Z,7824
2016-03-01T08:00:04.301Z,7824
2016-03-01T08:01:04.224Z,7868
2016-03-01T08:02:04.306Z,7968
2016-03-01T08:03:04.324Z,8068
2016-03-01T08:04:04.421Z,8148
2016-03-01T08:05:04.314Z,8184
2016-03-01T08:06:04.488Z,8212
2016-03-01T08:07:04.320Z,8256
2016-03-01T08:08:04.462Z,8304
2016-03-01T08:09:04.309Z,8348
2016-03-01T08:10:04.453Z,8392
2016-03-01T08:11:04.346Z,8392
2016-03-01T08:12:04.364Z,8508
2016-03-01T08:13:04.570Z,8572
2016-03-01T08:14:04.104Z,8572
2016-03-01T08:15:04.419Z,8596
2016-03-01T08:16:04.453Z,8508
2016-03-01T08:17:04.439Z,8428
2016-03-01T08:18:04.443Z,8304
2016-03-01T08:19:04.477Z,8268
2016-03-01T08:20:04.714Z,8196
2016-03-01T08:21:04.467Z,8096
2016-03-01T08:22:04.500Z,8012
2016-03-01T08:23:17.347Z,7896
2016-03-01T08:24:04.521Z,7880
2016-03-01T08:25:04.571Z,7656
2016-03-01T08:26:04.558Z,7288
2016-03-01T08:27:04.607Z,7000
2016-03-01T08:28:04.563Z,7032
2016-03-01T08:29:04.582Z,7040
2016-03-01T08:30:04.615Z,7440
2016-03-01T08:31:04.602Z,7596
2016-03-01T08:32:04.652Z,7808
2016-03-01T08:33:04.733Z,8204
2016-03-01T08:34:04.688Z,8252
2016-03-01T08:35:04.660Z,8648
2016-03-01T08:36:04.710Z,8884
2016-03-01T08:37:04.697Z,8812
2016-03-01T08:38:04.840Z,8616
2016-03-01T08:39:10.983Z,8676
2016-03-01T08:40:04.721Z,8744
2016-03-01T08:41:04.770Z,8868
2016-03-01T08:42:04.789Z,9000
2016-03-01T08:43:04.776Z,9216
2016-03-01T08:44:04.825Z,9044
2016-03-01T08:45:04.812Z,9000
2016-03-01T08:46:04.814Z,8992
2016-03-01T08:47:04.834Z,8972
2016-03-01T08:48:17.601Z,9312
2016-03-01T08:49:05.760Z,9800
2016-03-01T08:50:04.872Z,9636
2016-03-01T08:51:05.250Z,9884
2016-03-01T08:52:04.909Z,9700
2016-03-01T08:53:05.240Z,9816
2016-03-01T08:54:05.056Z,9872
2016-03-01T08:55:05.214Z,10024
2016-03-01T08:56:05.060Z,10068
2016-03-01T08:57:05.017Z,10008
2016-03-01T08:58:06.457Z,10052
2016-03-01T08:59:05.085Z,10104
2016-03-01T09:00:05.055Z,10172
2016-03-01T09:01:05.058Z,10224
2016-03-01T09:02:05.171Z,10344
2016-03-01T09:03:05.751Z,10356
2016-03-01T09:04:04.910Z,10564
2016-03-01T09:05:05.116Z,10480
2016-03-01T09:06:05.149Z,10844
2016-03-01T09:07:17.871Z,10944
2016-03-01T09:08:05.249Z,10764
2016-03-01T09:10:02.614Z,10776
2016-03-01T09:10:15.192Z,10792
2016-03-01T09:11:15.225Z,10820
2016-03-01T09:12:15.245Z,10872
2016-03-01T09:13:21.512Z,11312
2016-03-01T09:14:15.859Z,11272
2016-03-01T09:15:28.112Z,11368
2016-03-01T09:16:14.786Z,11216
2016-03-01T09:17:15.367Z,11432
2016-03-01T09:18:15.369Z,12088
2016-03-01T09:19:15.357Z,11364
2016-03-01T09:20:15.344Z,11416
2016-03-01T09:21:16.206Z,12004
2016-03-01T09:22:15.302Z,11876
2016-03-01T09:23:15.414Z,11816
2016-03-01T09:24:15.433Z,11616
2016-03-01T09:25:28.185Z,11660
2016-03-01T09:26:15.470Z,11748
2016-03-01T09:27:15.472Z,12340
2016-03-01T09:28:15.583Z,11576
2016-03-01T09:29:15.461Z,11916
2016-03-01T09:30:15.543Z,11816
2016-03-01T09:31:15.546Z,11572
2016-03-01T09:32:15.876Z,11784
2016-03-01T09:33:15.551Z,11592
2016-03-01T09:34:15.632Z,11048
2016-03-01T09:35:15.587Z,11468
2016-03-01T09:36:15.621Z,11392
2016-03-01T09:37:15.608Z,11408
2016-03-01T09:38:15.643Z,11348
2016-03-01T09:39:15.801Z,11596
2016-03-01T09:40:15.663Z,11632
2016-03-01T09:41:15.713Z,11600
2016-03-01T09:42:16.028Z,11628
2016-03-01T09:43:15.998Z,11512
2016-03-01T09:44:15.751Z,11456
2016-03-01T09:45:15.786Z,11664
2016-03-01T09:46:15.789Z,12024
2016-03-01T09:47:15.822Z,11528
2016-03-01T09:48:15.810Z,11540
2016-03-01T09:49:15.844Z,12176
2016-03-01T09:50:16.111Z,11656
2016-03-01T09:51:15.911Z,11692
2016-03-01T09:52:16.055Z,11860
2016-03-01T09:53:23.588Z,11784
2016-03-01T09:54:15.982Z,12060
2016-03-01T09:55:17.344Z,11948
2016-03-01T09:56:15.941Z,12204
2016-03-01T09:57:15.990Z,11948
2016-03-01T09:58:16.040Z,11808
2016-03-01T09:59:15.996Z,11700
2016-03-01T10:00:28.967Z,12592
2016-03-01T10:01:16.110Z,12032
2016-03-01T10:02:35.288Z,11880
2016-03-01T10:03:16.288Z,11840
2016-03-01T10:04:16.102Z,11768
2016-03-01T10:05:16.074Z,11884
2016-03-01T10:06:16.093Z,11748
2016-03-01T10:07:22.439Z,11668
2016-03-01T10:08:28.895Z,12028
2016-03-01T10:09:28.898Z,11972
2016-03-01T10:10:16.166Z,11784
2016-03-01T10:11:42.124Z,11828
2016-03-01T10:12:16.249Z,11880
2016-03-01T10:14:38.695Z,11828
2016-03-01T10:15:54.337Z,11884
2016-03-01T10:16:57.278Z,12116
2016-03-01T10:17:31.890Z,11916
2016-03-01T10:19:30.146Z,11812
2016-03-01T10:19:44.287Z,11812
2016-03-01T10:21:58.807Z,11956
2016-03-01T10:24:01.703Z,11792
2016-03-01T10:25:01.769Z,11796
2016-03-01T10:26:01.786Z,11896
2016-03-01T10:27:08.039Z,11828
2016-03-01T10:28:08.308Z,12016
2016-03-01T10:29:15.060Z,12304
2016-03-01T10:30:21.016Z,12420
2016-03-01T10:32:36.758Z,12048
2016-03-01T10:33:15.243Z,11948
2016-03-01T10:35:19.046Z,11872
2016-03-01T10:35:33.563Z,11872
2016-03-01T10:36:32.035Z,11796
2016-03-01T10:37:31.771Z,12048
2016-03-01T10:38:51.369Z,12696
2016-03-01T10:39:38.184Z,12120
2016-03-01T10:41:03.077Z,12048
2016-03-01T10:41:50.908Z,12348
2016-03-01T10:43:03.645Z,12452
2016-03-01T10:43:38.304Z,12324
2016-03-01T10:46:18.498Z,12408
2016-03-01T10:46:47.093Z,12472
2016-03-01T10:47:47.189Z,12364
2016-03-01T10:49:00.068Z,12512
2016-03-01T10:49:48.773Z,12788
2016-03-01T10:51:44.123Z,12556
2016-03-01T10:52:22.404Z,12576
2016-03-01T10:52:56.828Z,12584
2016-03-01T10:54:59.364Z,12608
2016-03-01T10:55:43.336Z,12932
2016-03-01T10:56:12.242Z,13112
2016-03-01T10:57:12.277Z,12760
2016-03-01T10:58:12.091Z,12836
2016-03-01T10:59:13.438Z,13028
2016-03-01T11:00:12.144Z,12980
2016-03-01T11:01:13.849Z,13244
2016-03-01T11:02:18.431Z,13044
2016-03-01T11:03:12.293Z,13028
2016-03-01T11:04:25.014Z,12988
2016-03-01T11:05:24.751Z,13028
2016-03-01T11:06:31.397Z,13276
2016-03-01T11:07:31.352Z,13152
2016-03-01T11:08:46.543Z,13256
2016-03-01T11:09:44.702Z,13128
2016-03-01T11:10:56.330Z,13164
2016-03-01T11:11:52.754Z,13308
2016-03-01T11:13:05.976Z,13164
2016-03-01T11:14:15.557Z,13188
2016-03-01T11:15:09.090Z,13236
2016-03-01T11:17:36.426Z,13208
2016-03-01T11:18:05.192Z,13156
2016-03-01T11:20:39.888Z,13228
2016-03-01T11:21:20.451Z,13236
2016-03-01T11:22:33.440Z,13212
2016-03-01T11:23:22.081Z,13184
2016-03-01T11:26:32.701Z,12952
2016-03-01T11:27:01.561Z,12936
2016-03-01T11:28:01.563Z,12868
2016-03-01T11:29:14.409Z,12868
2016-03-01T11:30:01.865Z,12848
2016-03-01T11:31:21.258Z,12868
2016-03-01T11:32:01.464Z,12904
2016-03-01T11:34:04.033Z,12924
2016-03-01T11:34:42.847Z,12956
2016-03-01T11:35:16.988Z,12960
2016-03-01T11:37:15.290Z,12928
2016-03-01T11:37:28.180Z,12932
2016-03-01T11:39:18.718Z,12908
2016-03-01T11:39:35.220Z,12920
2016-03-01T11:41:29.129Z,12868
2016-03-01T11:41:41.835Z,12868
2016-03-01T11:43:38.763Z,12824
2016-03-01T11:43:51.200Z,12820
2016-03-01T11:45:22.921Z,12840
2016-03-01T11:45:57.846Z,12832
2016-03-01T11:48:51.479Z,12804
2016-03-01T11:49:06.713Z,12784
2016-03-01T11:51:47.581Z,12720
2016-03-01T11:52:21.893Z,12720
2016-03-01T11:53:54.056Z,12684
2016-03-01T11:54:28.149Z,12720
2016-03-01T11:57:03.438Z,12776
2016-03-01T11:57:37.503Z,12808
2016-03-01T11:58:37.505Z,12856
2016-03-01T11:59:50.227Z,12904
2016-03-01T12:00:50.213Z,12920
2016-03-01T12:01:37.483Z,12924
2016-03-01T12:04:07.785Z,12936
2016-03-01T12:05:14.444Z,12936
2016-03-01T12:06:19.978Z,12940
2016-03-01T12:07:19.872Z,12940
2016-03-01T12:08:19.890Z,12960
2016-03-01T12:09:35.130Z,12948
2016-03-01T12:10:04.411Z,12932
2016-03-01T12:11:35.136Z,12864
2016-03-01T12:12:10.401Z,12840
2016-03-01T12:13:03.857Z,12800
2016-03-01T12:14:23.110Z,12764
2016-03-01T12:15:19.863Z,12768
2016-03-01T12:18:33.076Z,12764
2016-03-01T12:21:26.143Z,12752
2016-03-01T12:22:00.772Z,12744
2016-03-01T12:22:54.618Z,12716
2016-03-01T12:23:55.387Z,12688
2016-03-01T12:24:54.671Z,12672
2016-03-01T12:26:13.829Z,12656
2016-03-01T12:27:07.644Z,12648
2016-03-01T12:30:20.558Z,12668
2016-03-01T12:31:04.436Z,12668
2016-03-01T12:32:10.814Z,12664
2016-03-01T12:33:33.757Z,12656
2016-03-01T12:34:48.947Z,12624
2016-03-01T12:35:46.450Z,12584
2016-03-01T12:36:01.934Z,12568
2016-03-01T12:37:52.128Z,12480
2016-03-01T12:38:17.503Z,12420
2016-03-01T12:40:15.679Z,12264
2016-03-01T12:40:28.413Z,12240
2016-03-01T12:42:34.750Z,12120
2016-03-01T12:43:31.547Z,12096
2016-03-01T12:44:50.928Z,12068
2016-03-01T12:45:34.883Z,12056
2016-03-01T12:46:54.120Z,12028
2016-03-01T12:47:38.202Z,12016
2016-03-01T12:49:29.438Z,11988
2016-03-01T12:49:45.253Z,11980
2016-03-01T12:51:42.430Z,11908
2016-03-01T12:52:51.996Z,11848
2016-03-01T12:54:01.576Z,11792
2016-03-01T12:55:16.798Z,11744
2016-03-01T12:55:52.316Z,11728
2016-03-01T12:56:30.176Z,11724
2016-03-01T12:57:29.522Z,11724
2016-03-01T12:58:29.603Z,11712
2016-03-01T12:59:29.745Z,11688
2016-03-01T13:00:29.827Z,11672
2016-03-01T13:01:42.364Z,11632
2016-03-01T13:02:42.304Z,11604
2016-03-01T13:03:29.601Z,11568
2016-03-01T13:04:55.293Z,11500
2016-03-01T13:05:29.637Z,11468
2016-03-01T13:08:10.551Z,11332
2016-03-01T13:09:20.164Z,11296
2016-03-01T13:09:54.557Z,11232
2016-03-01T13:11:58.656Z,11084
2016-03-01T13:12:11.266Z,11064
2016-03-01T13:13:11.830Z,10984
2016-03-01T13:14:11.303Z,10920
2016-03-01T13:15:11.853Z,10864
2016-03-01T13:16:24.105Z,10800
2016-03-01T13:17:11.342Z,10752
2016-03-01T13:18:30.563Z,10628
2016-03-01T13:19:17.691Z,10544
2016-03-01T13:20:42.775Z,10372
2016-03-01T13:21:14.462Z,10300
2016-03-01T13:22:11.589Z,10172
2016-03-01T13:23:30.654Z,10040
2016-03-01T13:24:11.594Z,9984
2016-03-01T13:25:37.457Z,9880
2016-03-01T13:26:11.929Z,9848
2016-03-01T13:28:14.777Z,9704
2016-03-01T13:28:52.873Z,9688
2016-03-01T13:29:27.451Z,9592
2016-03-01T13:30:27.658Z,9508
2016-03-01T13:31:27.551Z,9436
2016-03-01T13:32:46.682Z,9380
2016-03-01T13:33:33.979Z,9300
2016-03-01T13:35:30.078Z,9164
2016-03-01T13:36:14.221Z,9108
2016-03-01T13:36:43.020Z,9072
2016-03-01T13:37:43.023Z,9012
2016-03-01T13:38:43.400Z,8936
2016-03-01T13:39:56.185Z,8848
2016-03-01T13:40:43.703Z,8820
2016-03-01T13:42:40.037Z,8732
2016-03-01T13:43:54.856Z,8660
2016-03-01T13:44:33.231Z,8628
2016-03-01T13:45:07.813Z,8588
2016-03-01T13:47:10.114Z,8388
2016-03-01T13:47:54.070Z,8316
2016-03-01T13:48:22.820Z,8264
2016-03-01T13:49:23.011Z,8144
2016-03-01T13:50:35.794Z,7996
2016-03-01T13:51:54.191Z,7828
2016-03-01T13:53:20.037Z,7628
2016-03-01T13:58:37.519Z,7112
2016-03-01T13:59:11.928Z,7084
2016-03-01T14:00:11.931Z,7060
2016-03-01T14:01:12.137Z,7040
2016-03-01T14:03:16.158Z,6996
2016-03-01T14:03:48.598Z,6980
2016-03-01T14:04:29.567Z,6960
2016-03-01T14:05:54.994Z,6904
2016-03-01T14:06:37.040Z,6856
2016-03-01T14:08:34.968Z,6688
2016-03-01T14:08:47.408Z,6656
2016-03-01T14:10:31.692Z,6508
2016-03-01T14:11:44.913Z,6408
2016-03-01T14:12:54.794Z,6304
2016-03-01T14:16:31.521Z,6052
2016-03-01T14:18:29.635Z,5884
2016-03-01T14:19:39.372Z,5776
2016-03-01T14:20:49.049Z,5700
2016-03-01T14:22:11.022Z,5648
2016-03-01T14:22:55.244Z,5576
2016-03-01T14:24:46.714Z,5384
2016-03-01T14:25:30.822Z,5288
2016-03-01T14:29:27.811Z,4892
2016-03-01T14:30:02.398Z,4856
2016-03-01T14:31:02.193Z,4796
2016-03-01T14:32:02.300Z,4728
2016-03-01T14:33:02.221Z,4664
2016-03-01T14:34:15.187Z,4564
2016-03-01T14:35:08.671Z,4464
2016-03-01T14:36:21.516Z,4312
2016-03-01T14:37:02.610Z,4232
2016-03-01T14:38:33.564Z,4072
2016-03-01T14:39:11.877Z,4016
2016-03-01T14:40:43.363Z,3916
2016-03-01T14:41:24.646Z,3904
2016-03-01T14:43:52.606Z,3932
2016-03-01T14:44:28.028Z,3928
2016-03-01T14:46:32.845Z,3856
2016-03-01T14:47:11.504Z,3828
2016-03-01T14:49:15.164Z,3772
2016-03-01T14:49:53.495Z,3744
2016-03-01T14:50:27.839Z,3712
2016-03-01T14:52:30.407Z,3548
2016-03-01T14:53:08.769Z,3484
2016-03-01T14:53:43.019Z,3428
2016-03-01T14:55:45.633Z,3244
2016-03-01T14:55:58.792Z,3228
2016-03-01T14:56:58.295Z,3168
2016-03-01T14:57:58.251Z,3124
2016-03-01T14:58:58.644Z,3076
2016-03-01T14:59:58.288Z,3024
2016-03-01T15:00:58.352Z,2952
2016-03-01T15:01:58.825Z,2892
2016-03-01T15:02:58.905Z,2852
2016-03-01T15:04:04.892Z,2832
2016-03-01T15:04:58.442Z,2828
2016-03-01T15:06:17.663Z,2832
2016-03-01T15:06:58.916Z,2824
2016-03-01T15:08:17.653Z,2804
2016-03-01T15:08:58.796Z,2792
2016-03-01T15:10:24.611Z,2744
2016-03-01T15:10:58.785Z,2728
2016-03-01T15:11:58.976Z,2696
2016-03-01T15:12:58.526Z,2640
2016-03-01T15:13:58.716Z,2584
2016-03-01T15:15:04.812Z,2532
2016-03-01T15:15:58.752Z,2500
2016-03-01T15:16:58.989Z,2468
2016-03-01T15:17:58.618Z,2452
2016-03-01T15:18:58.589Z,2432
2016-03-01T15:19:58.638Z,2384
2016-03-01T15:20:59.047Z,2328
2016-03-01T15:21:58.628Z,2272
2016-03-01T15:22:58.662Z,2212
2016-03-01T15:23:58.711Z,2152
2016-03-01T15:24:58.746Z,2112
2016-03-01T15:25:58.701Z,2068
2016-03-01T15:26:59.595Z,1988
2016-03-01T15:27:58.769Z,1924
2016-03-01T15:28:59.225Z,1892
2016-03-01T15:29:59.478Z,1880
2016-03-01T15:31:12.075Z,1868
2016-03-01T15:32:48.875Z,1812
2016-03-01T15:33:37.142Z,1784
2016-03-01T15:36:15.353Z,1724
2016-03-01T15:39:21.893Z,1652
2016-03-01T15:39:48.752Z,1640
2016-03-01T15:40:41.724Z,1612
2016-03-01T15:41:39.820Z,1568
2016-03-01T15:42:47.980Z,1492
2016-03-01T15:43:48.733Z,1456
2016-03-01T15:44:46.703Z,1412
2016-03-01T15:47:06.866Z,1296
2016-03-01T15:47:32.275Z,1280
2016-03-01T15:48:43.636Z,1272
2016-03-01T15:49:29.577Z,1196
2016-03-01T15:57:45.098Z,924
2016-03-01T15:58:39.366Z,876
2016-03-01T16:00:06.057Z,872
2016-03-01T16:01:33.235Z,852
2016-03-01T16:02:02.063Z,840
2016-03-01T16:03:22.396Z,820
2016-03-01T16:03:47.568Z,816
2016-03-01T16:04:47.976Z,808
2016-03-01T16:05:47.808Z,796
2016-03-01T16:06:47.810Z,792
2016-03-01T16:07:47.735Z,788
2016-03-01T16:08:47.643Z,780
2016-03-01T16:09:47.943Z,768
2016-03-01T16:10:48.134Z,744
2016-03-01T16:11:47.948Z,736
2016-03-01T16:12:47.701Z,724
2016-03-01T16:13:47.861Z,708
2016-03-01T16:14:47.973Z,704
2016-03-01T16:15:47.804Z,692
2016-03-01T16:16:47.837Z,672
2016-03-01T16:17:48.512Z,660
2016-03-01T16:18:48.281Z,632
2016-03-01T16:19:48.236Z,604
2016-03-01T16:20:47.864Z,580
2016-03-01T16:21:47.835Z,544
2016-03-01T16:22:54.150Z,516
2016-03-01T16:23:47.919Z,484
2016-03-01T16:24:48.125Z,456
2016-03-01T16:25:47.908Z,440
2016-03-01T16:26:48.364Z,432
2016-03-01T16:27:47.977Z,420
2016-03-01T16:29:01.244Z,412
2016-03-01T16:29:47.935Z,396
2016-03-01T16:30:48.218Z,384
2016-03-01T16:31:48.237Z,372
2016-03-01T16:32:47.990Z,364
2016-03-01T16:33:48.696Z,348
2016-03-01T16:35:00.793Z,324
2016-03-01T16:35:47.998Z,316
2016-03-01T16:36:48.390Z,296
2016-03-01T16:37:48.065Z,280
2016-03-01T16:38:48.318Z,276
2016-03-01T16:39:48.165Z,264
2016-03-01T16:40:48.184Z,264
2016-03-01T16:41:48.326Z,252
2016-03-01T16:42:48.173Z,244
2016-03-01T16:43:48.317Z,232
2016-03-01T16:44:48.100Z,224
2016-03-01T16:45:48.432Z,216
2016-03-01T16:46:48.591Z,200
2016-03-01T16:47:48.140Z,184
2016-03-01T16:48:48.721Z,176
2016-03-01T16:49:48.224Z,164
2016-03-01T16:50:48.430Z,160
2016-03-01T16:51:48.464Z,148
2016-03-01T16:52:48.623Z,136
2016-03-01T16:53:48.563Z,128
2016-03-01T16:55:01.300Z,116
2016-03-01T16:55:48.335Z,112
2016-03-01T16:56:48.681Z,104
2016-03-01T16:57:48.839Z,96
2016-03-01T16:58:48.390Z,92
2016-03-01T16:59:48.361Z,80